Time;durP1;ratioP1;P1;durP2;ratioP2;P2;SDS_P1;SDS_P2;PMS_P1;PMS_P2;Temp;Humidity;BMP_temperature;BMP_pressure;BME280_temperature;BME280_humidity;BME280_pressure;Samples;Min_cycle;Max_cycle;Signal;HPM_P1;HPM_P2
2021/08/27 00:02:16;;;;;;;9.00;5.25;;;;;;;8.42;96.56;92671.95;1859189;76;21345;-94
2021/08/27 00:04:43;;;;;;;8.78;5.42;;;;;;;8.43;96.56;92666.16;1860128;75;21075;-94
2021/08/27 00:07:10;;;;;;;9.70;5.40;;;;;;;8.46;96.46;92659.95;1799631;77;21532;-94
2021/08/27 00:09:39;;;;;;;8.60;5.15;;;;;;;8.51;96.34;92664.16;1847594;75;21829;-93
2021/08/27 00:12:06;;;;;;;8.30;5.12;;;;;;;8.51;96.41;92662.22;1856122;76;21101;-94
2021/08/27 00:14:33;;;;;;;10.05;5.17;;;;;;;8.55;96.40;92663.55;1774544;74;21964;-94
2021/08/27 00:17:00;;;;;;;11.12;6.67;;;;;;;8.56;96.31;92673.80;1883255;75;21004;-94
2021/08/27 00:19:27;;;;;;;10.23;6.05;;;;;;;8.51;96.52;92670.34;1803217;77;20861;-94
2021/08/27 00:21:54;;;;;;;12.88;7.45;;;;;;;8.54;96.56;92664.72;1782112;77;21013;-94
2021/08/27 00:24:20;;;;;;;12.05;7.15;;;;;;;8.58;96.44;92670.11;1812990;77;21057;-93
2021/08/27 00:26:48;;;;;;;10.82;6.75;;;;;;;8.61;96.14;92665.99;1816122;79;21116;-94
2021/08/27 00:29:14;;;;;;;13.45;6.97;;;;;;;8.65;95.86;92664.61;1771463;79;21038;-93
2021/08/27 00:31:42;;;;;;;10.45;6.85;;;;;;;8.69;95.83;92668.08;1771233;79;21357;-93
2021/08/27 00:34:09;;;;;;;10.88;6.80;;;;;;;8.72;95.77;92669.97;1824545;78;21053;-93
2021/08/27 00:36:36;;;;;;;10.20;6.70;;;;;;;8.75;95.87;92669.94;1812619;77;21929;-94
2021/08/27 00:39:10;;;;;;;10.13;7.03;;;;;;;8.78;95.79;92675.15;1796808;77;21140;-94
2021/08/27 00:41:37;;;;;;;15.28;8.23;;;;;;;8.81;95.75;92675.70;1842823;75;21087;-94
2021/08/27 00:44:04;;;;;;;14.80;8.60;;;;;;;8.82;95.60;92669.70;1809301;77;21096;-94
2021/08/27 00:46:31;;;;;;;8.10;5.40;;;;;;;8.81;95.70;92670.28;1824562;76;21038;-94
2021/08/27 00:48:58;;;;;;;10.53;6.97;;;;;;;8.81;95.81;92663.51;1825011;76;21058;-94
2021/08/27 00:51:26;;;;;;;12.80;7.17;;;;;;;8.78;96.03;92669.73;1808959;78;21122;-94
2021/08/27 00:53:53;;;;;;;9.70;6.22;;;;;;;8.78;96.18;92665.66;1839898;76;21756;-94
2021/08/27 00:56:20;;;;;;;8.43;5.58;;;;;;;8.80;96.30;92665.25;1822736;77;21084;-93
2021/08/27 00:58:47;;;;;;;9.90;6.80;;;;;;;8.81;96.30;92662.74;1820907;77;20904;-94
2021/08/27 01:01:15;;;;;;;10.90;7.55;;;;;;;8.83;96.06;92664.45;1856620;75;20999;-93
2021/08/27 01:03:42;;;;;;;11.60;7.15;;;;;;;8.83;95.80;92658.44;1865525;75;21045;-94
2021/08/27 01:06:33;;;;;;;13.58;7.53;;;;;;;8.85;95.48;92658.05;1787700;77;21103;-93
2021/08/27 01:09:07;;;;;;;10.72;7.08;;;;;;;8.89;95.21;92656.84;1850663;76;21041;-94
2021/08/27 01:11:50;;;;;;;11.00;7.10;;;;;;;8.90;94.98;92656.25;1853277;77;21088;-94
2021/08/27 01:14:34;;;;;;;;;;;;;;;8.90;94.62;92653.55;1820220;77;21249;-94
2021/08/27 01:17:24;;;;;;;10.53;6.22;;;;;;;8.92;94.63;92654.69;1738219;82;21139;-94
2021/08/27 01:20:28;;;;;;;11.60;7.28;;;;;;;8.91;94.47;92649.09;1703838;81;20965;-93
2021/08/27 01:23:21;;;;;;;17.07;9.43;;;;;;;8.90;94.12;92656.25;1804422;78;21033;-93
2021/08/27 01:25:56;;;;;;;15.75;10.65;;;;;;;8.88;94.29;92655.31;1747004;80;21068;-94
2021/08/27 01:28:24;;;;;;;9.43;6.65;;;;;;;8.89;94.65;92658.20;1792541;79;21627;-95
2021/08/27 01:31:31;;;;;;;10.23;7.17;;;;;;;8.88;94.86;92658.02;1809934;76;21558;-94
2021/08/27 01:34:36;;;;;;;10.65;7.08;;;;;;;8.85;95.15;92652.63;1825471;77;21020;-93
2021/08/27 01:37:03;;;;;;;10.25;6.90;;;;;;;8.83;95.22;92657.09;1760175;81;21046;-94
2021/08/27 01:39:37;;;;;;;11.70;6.70;;;;;;;8.84;95.30;92661.91;1768213;81;21102;-95
2021/08/27 01:42:08;;;;;;;8.23;6.15;;;;;;;8.85;95.44;92656.70;1778698;78;21133;-93
2021/08/27 01:44:34;;;;;;;7.30;5.40;;;;;;;8.84;95.86;92647.80;1814641;79;21290;-93
2021/08/27 01:47:03;;;;;;;10.30;6.58;;;;;;;8.84;96.01;92653.22;1816984;77;21050;-93
2021/08/27 01:49:30;;;;;;;8.58;5.62;;;;;;;8.84;96.31;92651.87;1838633;77;20970;-93
2021/08/27 01:52:03;;;;;;;18.45;11.38;;;;;;;8.85;96.37;92650.69;1874065;74;21063;-93
2021/08/27 01:54:30;;;;;;;8.85;5.53;;;;;;;8.84;96.60;92644.30;1874937;75;21335;-93
2021/08/27 01:56:58;;;;;;;7.30;5.12;;;;;;;8.85;96.82;92640.44;1767442;79;21101;-94
2021/08/27 01:59:29;;;;;;;11.65;5.62;;;;;;;8.79;97.04;92644.74;1796812;78;21063;-93
2021/08/27 02:01:57;;;;;;;8.83;5.70;;;;;;;8.77;97.48;92642.45;1814621;78;20985;-94
2021/08/27 02:04:24;;;;;;;12.23;7.33;;;;;;;8.80;97.39;92638.94;1846935;75;20970;-94
2021/08/27 02:06:51;;;;;;;12.53;7.25;;;;;;;8.77;96.97;92642.45;1821980;77;21317;-93
2021/08/27 02:09:18;;;;;;;13.75;6.67;;;;;;;8.79;96.87;92643.39;1851968;77;21131;-93
2021/08/27 02:11:46;;;;;;;8.75;6.03;;;;;;;8.81;96.96;92634.28;1826930;77;21552;-94
2021/08/27 02:14:14;;;;;;;8.75;5.15;;;;;;;8.79;97.18;92629.24;1843018;77;21076;-93
2021/08/27 02:16:42;;;;;;;8.70;5.37;;;;;;;8.76;97.59;92623.27;1844372;77;21003;-94
2021/08/27 02:19:09;;;;;;;8.78;4.78;;;;;;;8.73;98.03;92631.64;1835102;76;21030;-93
2021/08/27 02:21:41;;;;;;;6.90;5.03;;;;;;;8.75;98.47;92633.93;1818988;78;22944;-93
2021/08/27 02:24:14;;;;;;;7.53;5.78;;;;;;;8.78;98.46;92631.78;1822582;77;21041;-93
2021/08/27 02:26:45;;;;;;;6.83;4.95;;;;;;;8.84;97.44;92630.18;1860797;76;21760;-95
2021/08/27 02:29:17;;;;;;;8.73;6.30;;;;;;;8.94;96.76;92640.13;1858676;75;21072;-93
2021/08/27 02:31:47;;;;;;;10.65;6.78;;;;;;;9.02;95.95;92634.63;1863225;75;21024;-93
2021/08/27 02:34:16;;;;;;;8.20;5.72;;;;;;;9.09;95.76;92634.56;1862891;75;21822;-94
2021/08/27 02:36:43;;;;;;;10.15;5.78;;;;;;;9.10;95.90;92629.31;1839122;77;21166;-94
2021/08/27 02:39:09;;;;;;;9.85;6.37;;;;;;;9.10;96.19;92629.31;1827156;77;21709;-94
2021/08/27 02:41:36;;;;;;;13.83;7.00;;;;;;;9.12;96.04;92635.11;1827666;76;21030;-94
2021/08/27 02:44:05;;;;;;;10.30;6.90;;;;;;;9.14;96.14;92638.17;1854519;75;21069;-94
2021/08/27 02:46:31;;;;;;;12.33;6.50;;;;;;;9.14;96.51;92641.68;1811766;78;21111;-94
2021/08/27 02:48:58;;;;;;;9.60;5.67;;;;;;;9.13;96.62;92642.83;1821348;77;21670;-94
2021/08/27 02:51:35;;;;;;;11.68;6.55;;;;;;;9.14;96.48;92630.03;1786984;78;21190;-94
2021/08/27 02:54:03;;;;;;;10.58;6.47;;;;;;;9.11;96.47;92629.52;1799798;78;21021;-94
2021/08/27 02:56:36;;;;;;;10.80;6.33;;;;;;;9.11;96.49;92634.34;1799922;78;21118;-95
2021/08/27 02:59:11;;;;;;;10.72;7.05;;;;;;;9.14;96.46;92634.90;1883818;74;21301;-95
2021/08/27 03:01:37;;;;;;;13.00;6.05;;;;;;;9.18;96.01;92642.41;1847817;76;21550;-95
2021/08/27 03:04:15;;;;;;;8.63;5.60;;;;;;;9.22;95.53;92635.59;1848539;75;21617;-94
2021/08/27 03:06:50;;;;;;;12.33;6.50;;;;;;;9.23;95.11;92636.53;1897507;75;21308;-94
2021/08/27 03:09:17;;;;;;;7.92;5.10;;;;;;;9.22;94.86;92634.23;1895441;75;21016;-94
2021/08/27 03:11:54;;;;;;;8.05;5.37;;;;;;;9.24;95.23;92640.00;1775948;78;21177;-94
2021/08/27 03:14:37;;;;;;;7.70;5.50;;;;;;;9.26;95.57;92638.27;1830973;77;21654;-93
2021/08/27 03:17:08;;;;;;;8.15;5.40;;;;;;;9.20;95.63;92634.62;1830730;77;21051;-94
2021/08/27 03:19:46;;;;;;;10.80;7.00;;;;;;;9.11;95.92;92639.00;1795196;78;21598;-96
2021/08/27 03:22:21;;;;;;;10.35;6.53;;;;;;;9.11;95.68;92641.13;1822431;78;21039;-94
2021/08/27 03:24:59;;;;;;;11.43;6.37;;;;;;;9.13;95.25;92640.13;1829921;78;21492;-95
2021/08/27 03:27:32;;;;;;;8.65;6.12;;;;;;;9.18;95.24;92647.06;1826220;76;21049;-94
2021/08/27 03:30:05;;;;;;;7.62;6.10;;;;;;;9.21;95.29;92633.47;1858255;76;21064;-94
2021/08/27 03:32:32;;;;;;;10.05;7.12;;;;;;;9.26;95.05;92645.05;1831239;76;21057;-93
2021/08/27 03:34:59;;;;;;;10.32;6.92;;;;;;;9.22;94.63;92645.84;1874123;75;21079;-94
2021/08/27 03:37:26;;;;;;;11.70;7.17;;;;;;;9.20;94.61;92643.34;1840715;75;21945;-94
2021/08/27 03:39:53;;;;;;;9.78;6.85;;;;;;;9.20;94.71;92637.92;1860142;76;21468;-94
2021/08/27 03:42:20;;;;;;;11.03;7.53;;;;;;;9.21;94.70;92643.52;1752413;79;21652;-93
2021/08/27 03:44:53;;;;;;;8.80;6.80;;;;;;;9.23;94.66;92639.83;1796859;79;21072;-93
2021/08/27 03:47:22;;;;;;;9.30;6.00;;;;;;;9.24;94.54;92637.30;1810518;77;21235;-95
2021/08/27 03:49:49;;;;;;;10.93;7.78;;;;;;;9.22;94.27;92639.06;1817666;77;22835;-93
2021/08/27 03:52:16;;;;;;;7.80;6.15;;;;;;;9.24;94.40;92631.87;1828534;77;21149;-94
2021/08/27 03:54:43;;;;;;;8.55;5.72;;;;;;;9.26;94.50;92639.03;1824812;75;20997;-94
2021/08/27 03:57:10;;;;;;;9.98;6.17;;;;;;;9.24;95.22;92639.41;1853705;77;21025;-94
2021/08/27 03:59:37;;;;;;;7.12;4.83;;;;;;;9.15;96.05;92642.45;1860950;75;21226;-94
2021/08/27 04:02:05;;;;;;;9.43;5.95;;;;;;;9.05;96.86;92643.32;1847002;77;21121;-95
2021/08/27 04:04:32;;;;;;;7.10;4.92;;;;;;;8.99;97.11;92640.30;1862523;76;21066;-95
2021/08/27 04:07:02;;;;;;;8.70;6.53;;;;;;;9.00;97.79;92633.10;1846974;77;21096;-94
2021/08/27 04:09:32;;;;;;;11.93;6.50;;;;;;;8.99;96.63;92622.67;1785339;76;21054;-95
2021/08/27 04:12:03;;;;;;;8.80;5.75;;;;;;;9.08;96.92;92631.67;1828874;76;21059;-95
2021/08/27 04:14:32;;;;;;;8.03;5.45;;;;;;;9.15;96.33;92627.53;1831127;76;21035;-93
2021/08/27 04:17:01;;;;;;;14.93;7.17;;;;;;;9.24;95.63;92629.16;1853104;76;21009;-94
2021/08/27 04:19:28;;;;;;;9.23;6.30;;;;;;;9.33;95.84;92627.33;1872340;75;21056;-94
2021/08/27 04:21:57;;;;;;;8.38;5.12;;;;;;;9.36;95.83;92637.34;1838510;76;21074;-93
2021/08/27 04:24:25;;;;;;;8.95;5.92;;;;;;;9.35;96.26;92646.67;1786489;79;21555;-94
2021/08/27 04:27:18;;;;;;;8.75;5.25;;;;;;;9.32;96.18;92644.17;1787317;78;21559;-94
2021/08/27 04:29:50;;;;;;;7.47;5.25;;;;;;;9.35;95.77;92647.44;1787142;77;21553;-95
2021/08/27 04:32:18;;;;;;;8.40;5.15;;;;;;;9.44;94.46;92646.94;1837885;76;21084;-94
2021/08/27 04:34:50;;;;;;;7.60;5.33;;;;;;;9.50;94.09;92646.67;1849146;76;21334;-93
2021/08/27 04:37:19;;;;;;;7.53;5.43;;;;;;;9.57;93.69;92644.47;1798250;77;21764;-93
2021/08/27 04:39:47;;;;;;;8.15;5.70;;;;;;;9.63;93.15;92646.33;1823118;77;21176;-93
2021/08/27 04:42:17;;;;;;;8.98;6.78;;;;;;;9.70;92.74;92649.52;1850970;76;21485;-95
2021/08/27 04:44:43;;;;;;;8.70;5.90;;;;;;;9.77;92.74;92650.79;1852213;75;20955;-95
2021/08/27 04:47:10;;;;;;;15.58;8.83;;;;;;;9.84;92.45;92657.48;1807140;78;21069;-94
2021/08/27 04:49:39;;;;;;;11.40;7.28;;;;;;;9.91;92.19;92651.20;1854770;77;21046;-92
2021/08/27 04:52:06;;;;;;;13.70;7.10;;;;;;;9.95;91.56;92647.84;1830421;78;21115;-94
2021/08/27 04:54:33;;;;;;;8.55;6.00;;;;;;;10.00;91.42;92654.16;1879801;74;21061;-92
2021/08/27 04:57:08;;;;;;;9.48;6.05;;;;;;;10.05;91.35;92654.31;1857652;75;21163;-93
2021/08/27 04:59:35;;;;;;;8.73;5.97;;;;;;;10.07;90.88;92662.80;1830533;77;21039;-93
2021/08/27 05:02:02;;;;;;;10.03;6.37;;;;;;;10.07;90.43;92657.38;1796025;78;21012;-93
2021/08/27 05:04:34;;;;;;;13.45;7.10;;;;;;;10.07;90.19;92664.16;1848957;77;21136;-93
2021/08/27 05:07:00;;;;;;;12.05;6.87;;;;;;;10.06;90.27;92665.34;1826958;76;21088;-93
2021/08/27 05:09:48;;;;;;;15.70;7.30;;;;;;;10.05;90.38;92668.66;1789942;77;20998;-93
2021/08/27 05:12:20;;;;;;;9.65;6.58;;;;;;;10.07;90.68;92678.51;1824324;76;21022;-93
2021/08/27 05:14:47;;;;;;;12.85;7.37;;;;;;;10.10;90.73;92687.80;1819871;77;21021;-94
2021/08/27 05:17:21;;;;;;;11.95;7.70;;;;;;;10.11;90.95;92694.76;1798223;77;26684;-93
2021/08/27 05:19:48;;;;;;;11.75;7.25;;;;;;;10.17;90.72;92686.34;1847055;76;21026;-94
2021/08/27 05:22:17;;;;;;;10.10;6.35;;;;;;;10.22;90.60;92692.66;1818681;77;21095;-93
2021/08/27 05:24:47;;;;;;;11.65;6.47;;;;;;;10.28;90.60;92688.34;1811177;78;21081;-93
2021/08/27 05:27:22;;;;;;;10.13;7.00;;;;;;;10.34;90.62;92682.64;1809251;76;21050;-94
2021/08/27 05:29:48;;;;;;;9.48;5.72;;;;;;;10.38;90.58;92672.48;1737610;79;21563;-94
2021/08/27 05:32:27;;;;;;;9.68;6.12;;;;;;;10.42;90.73;92676.51;1834833;77;21104;-94
2021/08/27 05:34:51;;;;;;;10.10;6.62;;;;;;;10.44;90.25;92672.17;1802705;76;21066;-94
2021/08/27 05:37:24;;;;;;;10.90;6.28;;;;;;;10.51;90.71;92663.74;1849373;76;20912;-93
2021/08/27 05:39:51;;;;;;;9.25;6.05;;;;;;;10.57;90.42;92664.80;1888412;74;20965;-93
2021/08/27 05:42:24;;;;;;;10.82;5.70;;;;;;;10.66;90.04;92663.69;1849712;75;21112;-93
2021/08/27 05:44:57;;;;;;;9.93;6.22;;;;;;;10.74;90.46;92658.31;1812779;75;21012;-93
2021/08/27 05:47:26;;;;;;;9.90;6.03;;;;;;;10.90;90.12;92655.69;1844231;77;21058;-93
2021/08/27 05:52:53;;;;;;;9.40;5.92;;;;;;;11.22;88.73;92658.45;1724071;82;21853;-93
2021/08/27 05:55:35;;;;;;;10.05;7.37;;;;;;;11.33;88.10;92658.25;1805077;78;21108;-95
2021/08/27 05:58:14;;;;;;;;;;;;;;;11.38;87.71;92662.60;1767519;78;21045;-95
2021/08/27 06:00:57;;;;;;;12.78;7.08;;;;;;;11.39;87.31;92665.48;1843122;76;20206;-94
2021/08/27 06:03:21;;;;;;;11.18;6.58;;;;;;;11.38;86.50;92663.96;1824824;76;21013;-94
2021/08/27 06:05:47;;;;;;;10.13;6.10;;;;;;;11.37;85.57;92659.71;1790103;78;21017;-93
2021/08/27 06:08:17;;;;;;;10.80;6.15;;;;;;;11.37;85.19;92666.52;1849910;77;21033;-93
2021/08/27 06:10:46;;;;;;;9.00;6.62;;;;;;;11.37;85.00;92667.88;1853540;76;21023;-94
2021/08/27 06:13:16;;;;;;;9.95;6.33;;;;;;;11.39;85.40;92676.97;1830007;76;21099;-93
2021/08/27 06:15:46;;;;;;;11.45;6.90;;;;;;;11.41;85.85;92684.14;1890246;75;21217;-93
2021/08/27 06:18:18;;;;;;;13.88;6.72;;;;;;;11.41;86.54;92684.14;1858807;75;21021;-93
2021/08/27 06:20:50;;;;;;;9.23;6.30;;;;;;;11.45;87.25;92692.24;1847446;77;22563;-93
2021/08/27 06:23:18;;;;;;;9.05;6.33;;;;;;;11.43;87.55;92697.52;1856251;76;21047;-93
2021/08/27 06:25:46;;;;;;;12.03;6.47;;;;;;;11.46;87.71;92697.86;1859015;76;21057;-93
2021/08/27 06:28:21;;;;;;;13.65;7.55;;;;;;;11.48;87.53;92703.06;1890236;75;21483;-93
2021/08/27 06:30:55;;;;;;;10.65;7.30;;;;;;;11.50;88.13;92704.77;1851301;75;21014;-95
2021/08/27 06:33:21;;;;;;;10.68;7.10;;;;;;;11.55;87.87;92690.69;1803060;77;21159;-94
2021/08/27 06:35:55;;;;;;;13.43;8.23;;;;;;;11.61;88.67;92695.03;1823451;77;21033;-94
2021/08/27 06:38:26;;;;;;;11.85;7.42;;;;;;;11.67;89.12;92690.05;1847230;75;21649;-94
2021/08/27 06:41:05;;;;;;;10.20;6.70;;;;;;;11.75;89.40;92696.72;1887956;75;21003;-94
2021/08/27 06:44:18;;;;;;;;;;;;;;;;;;;;;
2021/08/27 06:46:45;;;;;;;9.45;6.28;;;;;;;12.06;89.71;92708.17;1877496;75;21795;-94
2021/08/27 06:49:12;;;;;;;9.13;6.72;;;;;;;12.28;87.81;92702.44;1807936;77;21136;-94
2021/08/27 07:09:16;;;;;;;9.60;6.72;;;;;;;12.50;82.77;92703.34;1812107;75;64983;-88
2021/08/27 07:11:56;;;;;;;25.97;7.95;;;;;;;12.53;82.21;92709.31;1835602;76;21101;-87
2021/08/27 07:14:38;;;;;;;12.35;7.30;;;;;;;12.55;81.41;92704.95;1843314;76;21090;-87
2021/08/27 07:17:07;;;;;;;14.33;7.35;;;;;;;12.56;80.78;92717.98;1791767;77;21283;-87
2021/08/27 07:23:10;;;;;;;9.35;6.55;;;;;;;12.64;80.87;92710.60;1807745;76;62837;-88
2021/08/27 07:25:37;;;;;;;9.15;6.80;;;;;;;12.74;81.05;92705.31;1797714;77;21241;-89
2021/08/27 07:28:04;;;;;;;8.53;6.28;;;;;;;12.82;80.44;92697.13;1812962;75;21041;-88
2021/08/27 07:30:30;;;;;;;12.43;7.47;;;;;;;12.88;80.29;92686.64;1829158;75;21073;-89
2021/08/27 07:32:57;;;;;;;10.45;7.67;;;;;;;12.95;79.90;92680.25;1795854;76;21096;-90
2021/08/27 07:35:23;;;;;;;13.45;8.45;;;;;;;13.02;79.53;92678.71;1831605;76;21620;-89
2021/08/27 07:37:50;;;;;;;11.25;7.92;;;;;;;13.06;79.13;92682.11;1846780;75;21204;-93
2021/08/27 07:40:16;;;;;;;13.05;8.00;;;;;;;13.10;79.10;92679.30;1843367;75;20994;-89
2021/08/27 07:42:43;;;;;;;13.15;8.18;;;;;;;13.11;79.25;92693.11;1839147;76;21055;-89
2021/08/27 07:45:12;;;;;;;14.38;7.35;;;;;;;13.16;79.14;92698.64;1815699;77;21457;-87
2021/08/27 07:47:40;;;;;;;14.95;7.85;;;;;;;13.19;79.04;92698.55;1816721;77;21448;-91
2021/08/27 07:50:08;;;;;;;8.75;6.40;;;;;;;13.24;78.78;92687.16;1791792;78;21349;-89
2021/08/27 07:52:34;;;;;;;12.20;6.40;;;;;;;13.32;77.61;92681.68;1813506;77;21026;-87
2021/08/27 07:55:01;;;;;;;7.47;5.35;;;;;;;13.41;77.92;92669.37;1816579;78;21033;-89
2021/08/27 07:57:27;;;;;;;9.18;5.83;;;;;;;13.52;76.76;92668.48;1776659;79;21088;-89
2021/08/27 07:59:54;;;;;;;11.08;5.47;;;;;;;13.63;76.30;92672.30;1815811;77;21054;-87
2021/08/27 08:02:20;;;;;;;6.80;5.28;;;;;;;13.69;75.64;92678.17;1807754;77;21023;-87
2021/08/27 08:04:47;;;;;;;8.63;5.87;;;;;;;13.78;74.92;92667.97;1775514;78;21702;-88
2021/08/27 08:07:13;;;;;;;11.45;6.58;;;;;;;13.90;74.77;92666.46;1756600;77;22324;-90
2021/08/27 08:09:40;;;;;;;7.75;5.10;;;;;;;14.06;74.75;92679.44;1751480;79;21086;-89
2021/08/27 08:12:07;;;;;;;7.90;5.65;;;;;;;14.25;73.55;92682.42;1750883;79;21133;-86
2021/08/27 08:14:34;;;;;;;7.78;5.25;;;;;;;14.42;73.38;92700.28;1750890;79;21034;-88
2021/08/27 08:17:01;;;;;;;8.45;5.40;;;;;;;14.55;71.91;92696.20;1786120;78;21050;-92
2021/08/27 08:19:27;;;;;;;7.42;5.15;;;;;;;14.65;71.93;92687.52;1753006;78;21152;-86
2021/08/27 08:21:54;;;;;;;7.20;5.40;;;;;;;14.74;71.28;92682.13;1740731;79;21112;-87
2021/08/27 08:24:21;;;;;;;7.50;5.87;;;;;;;14.80;69.78;92672.17;1781050;79;21086;-87
2021/08/27 08:26:47;;;;;;;7.08;5.20;;;;;;;14.84;69.61;92681.64;1727966;80;21130;-90
2021/08/27 08:29:14;;;;;;;10.65;6.12;;;;;;;14.89;69.30;92686.55;1773290;79;21094;-87
2021/08/27 08:31:41;;;;;;;10.75;5.85;;;;;;;14.91;68.83;92691.00;1774454;79;22056;-88
2021/08/27 08:34:07;;;;;;;8.05;6.20;;;;;;;14.89;70.62;92693.39;1781580;78;21074;-91
2021/08/27 08:36:38;;;;;;;8.78;5.72;;;;;;;14.91;70.68;92695.86;1760845;79;21047;-87
2021/08/27 08:39:07;;;;;;;7.87;5.70;;;;;;;14.92;70.66;92704.23;1774316;77;21043;-89
2021/08/27 08:41:39;;;;;;;9.00;6.08;;;;;;;14.95;70.62;92699.86;1792651;76;21662;-87
2021/08/27 08:44:09;;;;;;;8.00;5.58;;;;;;;14.97;69.94;92693.33;1734617;78;21049;-88
2021/08/27 08:46:42;;;;;;;10.25;5.60;;;;;;;14.99;68.66;92686.82;1788183;76;21029;-90
2021/08/27 08:49:08;;;;;;;12.88;8.30;;;;;;;15.01;68.42;92683.81;1856669;74;21113;-89
2021/08/27 08:51:35;;;;;;;7.53;5.90;;;;;;;15.03;69.13;92676.52;1873162;74;21533;-88
2021/08/27 08:54:02;;;;;;;12.68;5.95;;;;;;;15.06;69.46;92683.25;1870687;73;21044;-90
2021/08/27 08:56:28;;;;;;;8.00;5.78;;;;;;;15.10;69.98;92688.61;1835051;75;21098;-88
2021/08/27 08:59:04;;;;;;;7.00;5.30;;;;;;;15.12;70.51;92687.58;1906131;73;21045;-88
2021/08/27 09:01:33;;;;;;;6.92;5.65;;;;;;;15.14;71.07;92681.04;1830536;76;21026;-89
2021/08/27 09:03:59;;;;;;;8.33;5.30;;;;;;;15.16;70.47;92684.72;1875120;74;21030;-93
2021/08/27 09:06:26;;;;;;;8.60;5.42;;;;;;;15.16;69.89;92687.46;1887196;73;21127;-91
2021/08/27 09:08:59;;;;;;;7.25;5.33;;;;;;;15.15;70.10;92690.78;1897721;73;21557;-88
2021/08/27 09:11:27;;;;;;;9.95;5.45;;;;;;;15.15;70.67;92683.94;1893893;74;21212;-91
2021/08/27 09:13:59;;;;;;;10.53;6.08;;;;;;;15.14;70.24;92679.67;1899986;73;21169;-88
2021/08/27 09:16:30;;;;;;;7.85;5.58;;;;;;;15.12;69.94;92675.83;1858430;75;21123;-87
2021/08/27 09:18:57;;;;;;;8.25;6.30;;;;;;;15.11;69.94;92675.68;1869714;75;21010;-88
2021/08/27 09:21:47;;;;;;;8.90;6.78;;;;;;;15.09;70.58;92674.77;1873558;75;21105;-88
2021/08/27 09:24:25;;;;;;;9.15;5.50;;;;;;;15.10;71.26;92670.81;1866341;74;21072;-88
2021/08/27 09:26:58;;;;;;;9.98;5.90;;;;;;;15.12;70.84;92676.63;1821900;75;21313;-87
2021/08/27 09:29:41;;;;;;;9.53;5.90;;;;;;;15.17;70.53;92684.87;1877538;74;21390;-90
2021/08/27 09:32:08;;;;;;;9.93;6.97;;;;;;;15.20;70.06;92686.73;1857159;74;21025;-88
2021/08/27 09:34:34;;;;;;;7.95;5.33;;;;;;;15.23;70.44;92689.94;1900105;73;21090;-90
2021/08/27 09:37:01;;;;;;;7.40;5.17;;;;;;;15.27;69.99;92686.50;1894369;73;21508;-92
2021/08/27 09:39:33;;;;;;;6.53;4.53;;;;;;;15.29;67.18;92690.31;1840036;75;21460;-90
2021/08/27 09:42:01;;;;;;;8.18;4.72;;;;;;;15.31;65.91;92692.63;1850567;75;21027;-92
2021/08/27 09:44:28;;;;;;;7.12;5.45;;;;;;;15.31;65.72;92696.73;1788614;77;21073;-91
2021/08/27 09:46:59;;;;;;;6.80;4.50;;;;;;;15.30;65.77;92697.31;1820663;77;21123;-90
2021/08/27 09:49:29;;;;;;;6.10;4.97;;;;;;;15.30;66.86;92700.05;1861494;75;21033;-90
2021/08/27 09:51:59;;;;;;;7.50;4.58;;;;;;;15.32;67.08;92701.61;1839920;75;21063;-89
2021/08/27 09:54:31;;;;;;;6.70;4.60;;;;;;;15.36;67.20;92698.14;1846421;75;21630;-89
2021/08/27 09:57:01;;;;;;;5.62;4.17;;;;;;;15.39;67.07;92693.15;1859107;75;21052;-87
2021/08/27 09:59:37;;;;;;;6.17;4.65;;;;;;;15.42;66.46;92693.61;1859568;75;21042;-91
2021/08/27 10:02:05;;;;;;;6.42;4.30;;;;;;;15.44;66.00;92689.84;1843450;75;21352;-90
2021/08/27 10:04:32;;;;;;;6.75;4.60;;;;;;;15.44;66.22;92688.47;1857150;75;21025;-92
2021/08/27 10:06:58;;;;;;;7.33;4.97;;;;;;;15.45;65.28;92689.38;1865343;75;21066;-89
2021/08/27 10:09:44;;;;;;;7.67;4.42;;;;;;;15.46;65.51;92681.95;1832624;75;21045;-92
2021/08/27 10:12:13;;;;;;;7.42;3.90;;;;;;;15.46;64.92;92686.06;1873663;74;21153;-90
2021/08/27 10:14:40;;;;;;;6.08;4.83;;;;;;;15.46;65.02;92679.22;1891896;74;20970;-91
2021/08/27 10:17:07;;;;;;;8.85;4.72;;;;;;;15.44;65.04;92667.31;1884178;74;21388;-93
2021/08/27 10:19:34;;;;;;;5.85;4.22;;;;;;;15.43;64.64;92660.92;1834075;75;21085;-87
2021/08/27 10:22:01;;;;;;;6.90;5.15;;;;;;;15.44;65.01;92667.92;1787901;77;20950;-89
2021/08/27 10:24:27;;;;;;;5.97;4.53;;;;;;;15.42;65.37;92660.16;1860441;74;21067;-88
2021/08/27 10:26:55;;;;;;;5.80;3.77;;;;;;;15.42;65.66;92664.27;1876076;75;20997;-88
2021/08/27 10:29:22;;;;;;;8.75;3.80;;;;;;;15.43;65.27;92663.66;1855276;75;21040;-90
2021/08/27 10:31:50;;;;;;;6.67;4.50;;;;;;;15.42;65.77;92671.12;1884259;74;21404;-87
2021/08/27 10:34:18;;;;;;;7.62;4.60;;;;;;;15.43;65.27;92675.98;1868191;74;21367;-90
2021/08/27 10:36:51;;;;;;;8.85;4.45;;;;;;;15.42;65.65;92662.90;1855694;75;21092;-88
2021/08/27 10:39:35;;;;;;;7.25;4.65;;;;;;;15.45;65.22;92662.59;1820358;75;21682;-87
2021/08/27 10:42:04;;;;;;;6.28;4.33;;;;;;;15.46;65.23;92656.69;1862538;75;21015;-88
2021/08/27 10:44:51;;;;;;;10.25;4.42;;;;;;;15.47;65.05;92665.67;1857479;75;21540;-88
2021/08/27 10:47:18;;;;;;;7.97;4.15;;;;;;;15.47;65.89;92662.94;1858870;75;21538;-91
2021/08/27 10:49:52;;;;;;;12.35;5.78;;;;;;;15.47;66.33;92660.19;1855593;75;21622;-89
2021/08/27 10:52:37;;;;;;;7.62;4.80;;;;;;;15.46;65.85;92662.78;1852543;75;21045;-87
2021/08/27 10:55:07;;;;;;;8.20;4.92;;;;;;;15.45;65.24;92665.34;1857151;75;21095;-92
2021/08/27 10:57:55;;;;;;;10.58;5.28;;;;;;;15.42;65.43;92663.48;1872151;74;21055;-88
2021/08/27 11:00:39;;;;;;;7.12;4.87;;;;;;;15.43;66.16;92663.05;1894685;74;21103;-90
2021/08/27 11:03:07;;;;;;;6.83;4.90;;;;;;;15.49;66.54;92667.34;1866112;75;21089;-88
2021/08/27 11:05:35;;;;;;;6.72;4.78;;;;;;;15.54;65.94;92666.80;1880757;74;21406;-89
2021/08/27 11:08:33;;;;;;;8.85;5.53;;;;;;;15.60;65.49;92668.34;1846424;75;21092;-89
2021/08/27 11:11:17;;;;;;;8.98;4.78;;;;;;;15.68;65.27;92661.44;1808237;77;21030;-88
2021/08/27 11:13:44;;;;;;;6.40;4.53;;;;;;;15.75;64.95;92658.44;1835353;75;21706;-89
2021/08/27 11:16:23;;;;;;;5.37;4.55;;;;;;;15.79;64.06;92660.45;1836821;75;21124;-88
2021/08/27 11:18:51;;;;;;;6.30;4.60;;;;;;;15.80;63.17;92662.00;1815809;76;22280;-89
2021/08/27 11:21:35;;;;;;;7.05;4.67;;;;;;;15.82;63.51;92662.30;1823343;76;21011;-87
2021/08/27 11:24:20;;;;;;;7.28;4.25;;;;;;;15.79;63.27;92663.19;1842052;73;21179;-89
2021/08/27 11:27:02;;;;;;;6.10;4.67;;;;;;;15.77;63.66;92655.42;1885482;74;21057;-90
2021/08/27 11:29:38;;;;;;;7.40;4.67;;;;;;;15.74;64.28;92661.03;1863503;75;21087;-85
2021/08/27 11:32:29;;;;;;;6.15;5.10;;;;;;;15.70;64.91;92643.95;1815584;76;21389;-90
2021/08/27 11:35:00;;;;;;;9.43;6.58;;;;;;;15.64;64.72;92638.84;1811821;76;21041;-89
2021/08/27 11:37:40;;;;;;;7.42;4.97;;;;;;;15.57;65.78;92638.52;1804171;77;21643;-91
2021/08/27 11:40:10;;;;;;;7.62;4.95;;;;;;;15.49;65.56;92639.34;1865803;75;21055;-89
2021/08/27 11:42:39;;;;;;;10.65;5.75;;;;;;;15.43;66.50;92640.38;1867235;74;21113;-89
2021/08/27 11:45:18;;;;;;;11.38;7.30;;;;;;;15.38;66.75;92643.05;1812542;76;21542;-89
2021/08/27 11:47:52;;;;;;;14.10;7.83;;;;;;;15.32;67.36;92644.09;1834368;76;21052;-88
2021/08/27 11:50:27;;;;;;;11.73;6.75;;;;;;;15.26;68.57;92648.73;1825547;76;22012;-88
2021/08/27 11:52:58;;;;;;;11.75;6.65;;;;;;;15.19;68.90;92650.95;1830181;76;21013;-88
2021/08/27 11:55:25;;;;;;;18.15;10.48;;;;;;;15.12;70.73;92660.77;1819802;76;21627;-88
2021/08/27 11:57:56;;;;;;;24.67;14.47;;;;;;;15.02;74.21;92677.73;1850350;74;21658;-88
2021/08/27 12:00:26;;;;;;;20.08;11.97;;;;;;;14.88;76.09;92680.31;1888915;74;21065;-89
2021/08/27 12:02:56;;;;;;;9.75;6.35;;;;;;;14.69;77.58;92690.90;1866115;75;21021;-89
2021/08/27 12:05:24;;;;;;;13.40;7.47;;;;;;;14.49;78.94;92691.89;1893581;74;21107;-91
2021/08/27 12:08:03;;;;;;;9.05;6.08;;;;;;;14.28;81.05;92692.49;1828277;75;21184;-89
2021/08/27 12:10:36;;;;;;;9.40;6.60;;;;;;;14.11;82.96;92684.23;1853465;75;21426;-89
2021/08/27 12:13:05;;;;;;;13.40;7.53;;;;;;;13.98;83.57;92670.52;1854957;75;21129;-89
2021/08/27 12:15:40;;;;;;;8.45;6.05;;;;;;;13.92;84.93;92658.61;1804560;76;21089;-90
2021/08/27 12:18:09;;;;;;;17.60;11.68;;;;;;;13.87;84.29;92663.22;1804583;78;21038;-89